Cruise inventory

Prince Madog PM4DW15

Cruise plan

Cruise Info. 
Ship name (ship code)Prince Madog (74PD)
Cruise identifierPM4DW15
Cruise period1978-10-09 — 1978-10-11
StatusCompleted
Port of departureMenai Bridge, United Kingdom
Port of returnMenai Bridge, United Kingdom
ObjectivesLiverpool Bay Front Survey.
Chief scientistSteven P R Czitrom Baus (University of Wales, Bangor School of Ocean Sciences)
Ocean/sea areas 
GeneralIrish Sea and St. George's Channel
Track chartsPrince Madog PM4DW15 cruise track — trk_livbaysurv.pdf (0.38 MB) 
Measurements 
Physical oceanography 
CTD stationsQuantity: number of stations = 42
Data held at BODC 
Series/Profiles 
42  CTD/STD cast
Vertical spatial coordinates
Salinity of the water column
Temperature of the water column
Vertical spatial coordinates
Salinity of the water column
Temperature of the water column

BODC idDate/TimeLocationDoc.
669871978-10-10 23:00 53° 57' 17" N  4° 5' 45" W  View metadata report for BODC series reference number 66987
669991978-10-10 23:57 53° 56' 52" N  3° 59' 49" W  View metadata report for BODC series reference number 66999
670021978-10-11 00:55 53° 56' 52" N  3° 53' 5" W  View metadata report for BODC series reference number 67002
670141978-10-11 01:30 53° 56' 52" N  3° 46' 51" W  View metadata report for BODC series reference number 67014
670261978-10-11 02:05 53° 57' 3" N  3° 40' 29" W  View metadata report for BODC series reference number 67026
670381978-10-11 02:41 53° 57' 3" N  3° 33' 32" W  View metadata report for BODC series reference number 67038
670511978-10-11 03:00 53° 57' 43" N  3° 32' 45" W  View metadata report for BODC series reference number 67051
670631978-10-11 04:17 53° 56' 49" N  3° 20' 31" W  View metadata report for BODC series reference number 67063
670751978-10-11 04:56 54° 1' 12" N  3° 19' 15" W  View metadata report for BODC series reference number 67075
670871978-10-11 05:30 54° 4' 37" N  3° 19' 58" W  View metadata report for BODC series reference number 67087
670991978-10-11 06:09 54° 4' 58" N  3° 27' 18" W  View metadata report for BODC series reference number 67099
666491978-10-09 17:35 53° 49' 15" N  3° 33' 32" W  View metadata report for BODC series reference number 66649
666501978-10-09 19:00 53° 40' 58" N  3° 19' 44" W  View metadata report for BODC series reference number 66650
666621978-10-09 19:55 53° 41' 2" N  3° 26' 31" W  View metadata report for BODC series reference number 66662
666741978-10-09 20:35 53° 40' 51" N  3° 32' 59" W  View metadata report for BODC series reference number 66674
666861978-10-09 21:35 53° 40' 47" N  3° 40' 11" W  View metadata report for BODC series reference number 66686
666981978-10-09 22:15 53° 40' 44" N  3° 46' 29" W  View metadata report for BODC series reference number 66698
667051978-10-09 23:25 53° 41' 2" N  3° 53' 2" W  View metadata report for BODC series reference number 66705
667171978-10-10 00:15 53° 41' 13" N  4° 0' 7" W  View metadata report for BODC series reference number 66717
667291978-10-10 01:28 53° 41' 2" N  4° 6' 3" W  View metadata report for BODC series reference number 66729
667301978-10-10 02:22 53° 41' 9" N  4° 13' 26" W  View metadata report for BODC series reference number 66730
667421978-10-10 03:43 53° 40' 55" N  4° 20' 59" W  View metadata report for BODC series reference number 66742
667541978-10-10 05:00 53° 33' 36" N  4° 13' 55" W  View metadata report for BODC series reference number 66754
667661978-10-10 05:48 53° 32' 56" N  4° 6' 57" W  View metadata report for BODC series reference number 66766
667781978-10-10 06:33 53° 32' 52" N  4° 0' 7" W  View metadata report for BODC series reference number 66778
667911978-10-10 07:45 53° 33' 7" N  3° 53' 38" W  View metadata report for BODC series reference number 66791
668091978-10-10 08:30 53° 32' 59" N  3° 46' 55" W  View metadata report for BODC series reference number 66809
668101978-10-10 09:36 53° 32' 42" N  3° 40' 8" W  View metadata report for BODC series reference number 66810
668221978-10-10 10:30 53° 33' 7" N  3° 32' 52" W  View metadata report for BODC series reference number 66822
668341978-10-10 11:30 53° 33' 3" N  3° 26' 31" W  View metadata report for BODC series reference number 66834
668461978-10-10 12:40 53° 41' 9" N  3° 19' 33" W  View metadata report for BODC series reference number 66846
668581978-10-10 13:35 53° 45' 7" N  3° 19' 19" W  View metadata report for BODC series reference number 66858
668711978-10-10 14:07 53° 48' 50" N  3° 18' 57" W  View metadata report for BODC series reference number 66871
668831978-10-10 15:04 53° 49' 4" N  3° 27' 7" W  View metadata report for BODC series reference number 66883
668951978-10-10 15:55 53° 48' 53" N  3° 34' 15" W  View metadata report for BODC series reference number 66895
669021978-10-10 16:38 53° 48' 53" N  3° 39' 25" W  View metadata report for BODC series reference number 66902
669141978-10-10 17:25 53° 49' 1" N  3° 47' 9" W  View metadata report for BODC series reference number 66914
669261978-10-10 18:15 53° 49' 12" N  3° 53' 9" W  View metadata report for BODC series reference number 66926
669381978-10-10 18:50 53° 49' 8" N  4° 0' 3" W  View metadata report for BODC series reference number 66938
669511978-10-10 19:40 53° 49' 30" N  4° 7' 55" W  View metadata report for BODC series reference number 66951
669631978-10-10 20:20 53° 49' 22" N  4° 14' 49" W  View metadata report for BODC series reference number 66963
669751978-10-10 21:55 53° 57' 43" N  4° 13' 55" W  View metadata report for BODC series reference number 66975